sensor_id;sensor_type;location;lat;lon;timestamp;P1;durP1;ratioP1;P2;durP2;ratioP2
21681;SDS011;11002;48.256;10.084;2023-03-13T00:01:54;4.90;;;1.25;;
21681;SDS011;11002;48.256;10.084;2023-03-13T00:04:21;3.38;;;1.00;;
21681;SDS011;11002;48.256;10.084;2023-03-13T00:06:49;4.13;;;1.42;;
21681;SDS011;11002;48.256;10.084;2023-03-13T00:09:16;2.83;;;1.05;;
21681;SDS011;11002;48.256;10.084;2023-03-13T00:11:44;4.82;;;1.08;;
21681;SDS011;11002;48.256;10.084;2023-03-13T00:14:11;6.40;;;1.00;;
21681;SDS011;11002;48.256;10.084;2023-03-13T00:16:39;4.80;;;1.17;;
21681;SDS011;11002;48.256;10.084;2023-03-13T00:19:07;3.13;;;1.17;;
21681;SDS011;11002;48.256;10.084;2023-03-13T00:21:35;5.03;;;1.20;;
21681;SDS011;11002;48.256;10.084;2023-03-13T00:24:03;4.40;;;1.00;;
21681;SDS011;11002;48.256;10.084;2023-03-13T00:26:30;6.53;;;1.38;;
21681;SDS011;11002;48.256;10.084;2023-03-13T00:28:58;3.63;;;1.85;;
21681;SDS011;11002;48.256;10.084;2023-03-13T00:31:26;4.10;;;1.13;;
21681;SDS011;11002;48.256;10.084;2023-03-13T00:33:56;3.25;;;0.88;;
21681;SDS011;11002;48.256;10.084;2023-03-13T00:36:26;6.88;;;1.58;;
21681;SDS011;11002;48.256;10.084;2023-03-13T00:38:55;6.57;;;1.00;;
21681;SDS011;11002;48.256;10.084;2023-03-13T00:41:23;5.35;;;1.15;;
21681;SDS011;11002;48.256;10.084;2023-03-13T00:43:52;3.85;;;1.05;;
21681;SDS011;11002;48.256;10.084;2023-03-13T00:46:21;4.03;;;1.13;;
21681;SDS011;11002;48.256;10.084;2023-03-13T00:48:50;3.53;;;1.33;;
21681;SDS011;11002;48.256;10.084;2023-03-13T00:51:19;2.53;;;0.73;;
21681;SDS011;11002;48.256;10.084;2023-03-13T00:53:49;3.72;;;0.90;;
21681;SDS011;11002;48.256;10.084;2023-03-13T00:56:17;3.05;;;0.80;;
21681;SDS011;11002;48.256;10.084;2023-03-13T00:58:46;4.53;;;0.98;;
21681;SDS011;11002;48.256;10.084;2023-03-13T01:01:15;5.13;;;1.10;;
21681;SDS011;11002;48.256;10.084;2023-03-13T01:03:45;7.38;;;1.33;;
21681;SDS011;11002;48.256;10.084;2023-03-13T01:06:14;4.32;;;1.00;;
21681;SDS011;11002;48.256;10.084;2023-03-13T01:08:43;7.80;;;1.38;;
21681;SDS011;11002;48.256;10.084;2023-03-13T01:11:12;5.05;;;0.90;;
21681;SDS011;11002;48.256;10.084;2023-03-13T01:13:41;5.35;;;1.25;;
21681;SDS011;11002;48.256;10.084;2023-03-13T01:16:09;3.53;;;0.80;;
21681;SDS011;11002;48.256;10.084;2023-03-13T01:18:39;3.67;;;1.15;;
21681;SDS011;11002;48.256;10.084;2023-03-13T01:21:09;2.20;;;0.70;;
21681;SDS011;11002;48.256;10.084;2023-03-13T01:23:37;9.45;;;1.30;;
21681;SDS011;11002;48.256;10.084;2023-03-13T01:26:05;3.95;;;0.80;;
21681;SDS011;11002;48.256;10.084;2023-03-13T01:28:35;2.53;;;1.00;;
21681;SDS011;11002;48.256;10.084;2023-03-13T01:31:09;3.17;;;0.73;;
21681;SDS011;11002;48.256;10.084;2023-03-13T01:33:38;3.00;;;0.93;;
21681;SDS011;11002;48.256;10.084;2023-03-13T01:36:06;3.35;;;1.00;;
21681;SDS011;11002;48.256;10.084;2023-03-13T01:38:34;5.18;;;0.77;;
21681;SDS011;11002;48.256;10.084;2023-03-13T01:41:02;3.85;;;0.82;;
21681;SDS011;11002;48.256;10.084;2023-03-13T01:43:31;4.55;;;0.70;;
21681;SDS011;11002;48.256;10.084;2023-03-13T01:49:02;3.70;;;0.98;;
21681;SDS011;11002;48.256;10.084;2023-03-13T01:52:12;4.32;;;0.93;;
21681;SDS011;11002;48.256;10.084;2023-03-13T01:54:49;1.90;;;0.85;;
21681;SDS011;11002;48.256;10.084;2023-03-13T01:57:22;6.07;;;0.95;;
21681;SDS011;11002;48.256;10.084;2023-03-13T01:59:51;4.40;;;1.88;;
21681;SDS011;11002;48.256;10.084;2023-03-13T02:02:23;2.58;;;0.88;;
21681;SDS011;11002;48.256;10.084;2023-03-13T02:04:53;3.40;;;0.90;;
21681;SDS011;11002;48.256;10.084;2023-03-13T02:07:25;4.15;;;0.80;;
21681;SDS011;11002;48.256;10.084;2023-03-13T02:09:57;2.80;;;0.90;;
21681;SDS011;11002;48.256;10.084;2023-03-13T02:12:28;3.33;;;0.90;;
21681;SDS011;11002;48.256;10.084;2023-03-13T02:14:59;2.58;;;0.88;;
21681;SDS011;11002;48.256;10.084;2023-03-13T02:17:31;4.13;;;0.95;;
21681;SDS011;11002;48.256;10.084;2023-03-13T02:20:02;3.58;;;1.02;;
21681;SDS011;11002;48.256;10.084;2023-03-13T02:22:30;2.08;;;0.63;;
21681;SDS011;11002;48.256;10.084;2023-03-13T02:25:05;1.27;;;0.70;;
21681;SDS011;11002;48.256;10.084;2023-03-13T02:27:38;3.83;;;0.80;;
21681;SDS011;11002;48.256;10.084;2023-03-13T02:30:07;1.42;;;0.40;;
21681;SDS011;11002;48.256;10.084;2023-03-13T02:32:36;5.15;;;0.82;;
21681;SDS011;11002;48.256;10.084;2023-03-13T02:35:05;2.33;;;0.63;;
21681;SDS011;11002;48.256;10.084;2023-03-13T02:37:35;2.78;;;0.52;;
21681;SDS011;11002;48.256;10.084;2023-03-13T02:40:08;3.15;;;0.60;;
21681;SDS011;11002;48.256;10.084;2023-03-13T02:42:42;3.33;;;0.73;;
21681;SDS011;11002;48.256;10.084;2023-03-13T02:45:12;1.27;;;0.60;;
21681;SDS011;11002;48.256;10.084;2023-03-13T02:47:40;2.35;;;0.88;;
21681;SDS011;11002;48.256;10.084;2023-03-13T02:50:09;4.53;;;0.73;;
21681;SDS011;11002;48.256;10.084;2023-03-13T02:52:38;3.50;;;0.60;;
21681;SDS011;11002;48.256;10.084;2023-03-13T02:55:11;1.15;;;0.45;;
21681;SDS011;11002;48.256;10.084;2023-03-13T02:57:44;1.77;;;0.80;;
21681;SDS011;11002;48.256;10.084;2023-03-13T03:00:11;1.90;;;0.70;;
21681;SDS011;11002;48.256;10.084;2023-03-13T03:02:41;2.30;;;0.80;;
21681;SDS011;11002;48.256;10.084;2023-03-13T03:05:09;2.50;;;1.30;;
21681;SDS011;11002;48.256;10.084;2023-03-13T03:07:37;1.58;;;0.73;;
21681;SDS011;11002;48.256;10.084;2023-03-13T03:10:06;4.22;;;0.90;;
21681;SDS011;11002;48.256;10.084;2023-03-13T03:12:35;2.28;;;0.75;;
21681;SDS011;11002;48.256;10.084;2023-03-13T03:15:04;0.88;;;0.50;;
21681;SDS011;11002;48.256;10.084;2023-03-13T03:17:34;1.88;;;0.70;;
21681;SDS011;11002;48.256;10.084;2023-03-13T03:20:02;3.05;;;1.05;;
21681;SDS011;11002;48.256;10.084;2023-03-13T03:22:32;5.72;;;0.88;;
21681;SDS011;11002;48.256;10.084;2023-03-13T03:25:02;1.05;;;0.50;;
21681;SDS011;11002;48.256;10.084;2023-03-13T03:27:30;3.97;;;0.88;;
21681;SDS011;11002;48.256;10.084;2023-03-13T03:29:58;2.50;;;0.70;;
21681;SDS011;11002;48.256;10.084;2023-03-13T03:32:27;6.00;;;2.45;;
21681;SDS011;11002;48.256;10.084;2023-03-13T03:34:54;1.10;;;0.90;;
21681;SDS011;11002;48.256;10.084;2023-03-13T03:37:22;1.15;;;0.73;;
21681;SDS011;11002;48.256;10.084;2023-03-13T03:39:50;4.00;;;0.68;;
21681;SDS011;11002;48.256;10.084;2023-03-13T03:42:18;2.63;;;0.60;;
21681;SDS011;11002;48.256;10.084;2023-03-13T03:44:45;2.90;;;0.65;;
21681;SDS011;11002;48.256;10.084;2023-03-13T03:47:13;2.63;;;0.80;;
21681;SDS011;11002;48.256;10.084;2023-03-13T03:49:45;2.30;;;0.70;;
21681;SDS011;11002;48.256;10.084;2023-03-13T03:52:14;1.58;;;0.68;;
21681;SDS011;11002;48.256;10.084;2023-03-13T03:54:43;2.50;;;0.70;;
21681;SDS011;11002;48.256;10.084;2023-03-13T03:57:11;3.83;;;0.90;;
21681;SDS011;11002;48.256;10.084;2023-03-13T03:59:41;5.05;;;0.98;;
21681;SDS011;11002;48.256;10.084;2023-03-13T04:02:10;1.90;;;0.60;;
21681;SDS011;11002;48.256;10.084;2023-03-13T04:04:39;5.55;;;0.85;;
21681;SDS011;11002;48.256;10.084;2023-03-13T04:07:18;2.58;;;0.65;;
21681;SDS011;11002;48.256;10.084;2023-03-13T04:09:45;4.65;;;1.65;;
21681;SDS011;11002;48.256;10.084;2023-03-13T04:12:20;2.60;;;0.85;;
21681;SDS011;11002;48.256;10.084;2023-03-13T04:14:50;4.45;;;0.80;;
21681;SDS011;11002;48.256;10.084;2023-03-13T04:17:19;2.30;;;0.68;;
21681;SDS011;11002;48.256;10.084;2023-03-13T04:19:47;3.70;;;0.63;;
21681;SDS011;11002;48.256;10.084;2023-03-13T04:22:14;2.08;;;0.80;;
21681;SDS011;11002;48.256;10.084;2023-03-13T04:24:49;3.33;;;0.80;;
21681;SDS011;11002;48.256;10.084;2023-03-13T04:27:20;3.60;;;0.55;;
21681;SDS011;11002;48.256;10.084;2023-03-13T04:29:48;3.40;;;0.70;;
21681;SDS011;11002;48.256;10.084;2023-03-13T04:32:28;1.90;;;0.73;;
21681;SDS011;11002;48.256;10.084;2023-03-13T04:35:17;1.27;;;0.55;;
21681;SDS011;11002;48.256;10.084;2023-03-13T04:38:05;1.05;;;0.68;;
21681;SDS011;11002;48.256;10.084;2023-03-13T04:40:46;2.40;;;0.65;;
21681;SDS011;11002;48.256;10.084;2023-03-13T04:46:26;2.95;;;0.73;;
21681;SDS011;11002;48.256;10.084;2023-03-13T04:49:24;4.80;;;0.80;;
21681;SDS011;11002;48.256;10.084;2023-03-13T04:52:05;0.85;;;0.60;;
21681;SDS011;11002;48.256;10.084;2023-03-13T04:54:51;3.47;;;0.70;;
21681;SDS011;11002;48.256;10.084;2023-03-13T04:57:49;2.25;;;0.60;;
21681;SDS011;11002;48.256;10.084;2023-03-13T05:00:54;2.85;;;0.60;;
21681;SDS011;11002;48.256;10.084;2023-03-13T05:06:19;1.38;;;0.60;;
21681;SDS011;11002;48.256;10.084;2023-03-13T05:09:24;4.72;;;0.52;;
21681;SDS011;11002;48.256;10.084;2023-03-13T05:12:07;2.35;;;0.65;;
21681;SDS011;11002;48.256;10.084;2023-03-13T05:15:06;2.15;;;0.47;;
21681;SDS011;11002;48.256;10.084;2023-03-13T05:17:47;0.82;;;0.40;;
21681;SDS011;11002;48.256;10.084;2023-03-13T05:20:25;1.52;;;0.70;;
21681;SDS011;11002;48.256;10.084;2023-03-13T05:23:10;0.63;;;0.40;;
21681;SDS011;11002;48.256;10.084;2023-03-13T05:26:02;1.13;;;0.55;;
21681;SDS011;11002;48.256;10.084;2023-03-13T05:28:40;1.83;;;0.70;;
21681;SDS011;11002;48.256;10.084;2023-03-13T05:31:38;0.60;;;0.60;;
21681;SDS011;11002;48.256;10.084;2023-03-13T05:34:19;1.40;;;0.85;;
21681;SDS011;11002;48.256;10.084;2023-03-13T05:37:09;2.33;;;0.70;;
21681;SDS011;11002;48.256;10.084;2023-03-13T05:40:00;0.80;;;0.40;;
21681;SDS011;11002;48.256;10.084;2023-03-13T05:42:51;0.90;;;0.57;;
21681;SDS011;11002;48.256;10.084;2023-03-13T05:45:27;1.95;;;0.40;;
21681;SDS011;11002;48.256;10.084;2023-03-13T05:48:11;1.02;;;0.40;;
21681;SDS011;11002;48.256;10.084;2023-03-13T05:50:58;0.57;;;0.32;;
21681;SDS011;11002;48.256;10.084;2023-03-13T05:54:01;0.68;;;0.40;;
21681;SDS011;11002;48.256;10.084;2023-03-13T05:56:48;2.00;;;0.70;;
21681;SDS011;11002;48.256;10.084;2023-03-13T05:59:30;0.80;;;0.43;;
21681;SDS011;11002;48.256;10.084;2023-03-13T06:02:19;1.55;;;0.60;;
21681;SDS011;11002;48.256;10.084;2023-03-13T06:04:48;0.93;;;0.60;;
21681;SDS011;11002;48.256;10.084;2023-03-13T06:07:16;3.88;;;0.75;;
21681;SDS011;11002;48.256;10.084;2023-03-13T06:09:44;0.82;;;0.38;;
21681;SDS011;11002;48.256;10.084;2023-03-13T06:12:12;1.92;;;0.60;;
21681;SDS011;11002;48.256;10.084;2023-03-13T06:14:40;2.00;;;0.60;;
21681;SDS011;11002;48.256;10.084;2023-03-13T06:17:22;2.10;;;0.50;;
21681;SDS011;11002;48.256;10.084;2023-03-13T06:19:51;1.33;;;0.50;;
21681;SDS011;11002;48.256;10.084;2023-03-13T06:22:19;4.07;;;0.57;;
21681;SDS011;11002;48.256;10.084;2023-03-13T06:24:46;1.00;;;0.45;;
21681;SDS011;11002;48.256;10.084;2023-03-13T06:27:14;1.33;;;0.40;;
21681;SDS011;11002;48.256;10.084;2023-03-13T06:29:41;1.67;;;0.70;;
21681;SDS011;11002;48.256;10.084;2023-03-13T06:32:08;0.50;;;0.47;;
21681;SDS011;11002;48.256;10.084;2023-03-13T06:34:36;1.88;;;0.70;;
21681;SDS011;11002;48.256;10.084;2023-03-13T06:37:05;2.47;;;0.40;;
21681;SDS011;11002;48.256;10.084;2023-03-13T06:39:32;2.22;;;0.52;;
21681;SDS011;11002;48.256;10.084;2023-03-13T06:41:59;2.67;;;0.40;;
21681;SDS011;11002;48.256;10.084;2023-03-13T06:44:29;1.70;;;0.43;;
21681;SDS011;11002;48.256;10.084;2023-03-13T06:46:57;1.17;;;0.25;;
21681;SDS011;11002;48.256;10.084;2023-03-13T06:49:24;1.80;;;0.30;;
21681;SDS011;11002;48.256;10.084;2023-03-13T06:51:51;0.85;;;0.50;;
21681;SDS011;11002;48.256;10.084;2023-03-13T06:54:20;0.80;;;0.40;;
21681;SDS011;11002;48.256;10.084;2023-03-13T06:56:48;0.65;;;0.40;;
21681;SDS011;11002;48.256;10.084;2023-03-13T06:59:15;1.60;;;0.40;;
21681;SDS011;11002;48.256;10.084;2023-03-13T07:01:43;0.77;;;0.30;;
21681;SDS011;11002;48.256;10.084;2023-03-13T07:04:11;0.93;;;0.50;;
21681;SDS011;11002;48.256;10.084;2023-03-13T07:06:39;0.73;;;0.40;;
21681;SDS011;11002;48.256;10.084;2023-03-13T07:09:06;2.08;;;0.47;;
21681;SDS011;11002;48.256;10.084;2023-03-13T07:11:36;2.08;;;0.50;;
21681;SDS011;11002;48.256;10.084;2023-03-13T07:14:03;1.08;;;0.40;;
21681;SDS011;11002;48.256;10.084;2023-03-13T07:16:30;1.08;;;0.50;;
21681;SDS011;11002;48.256;10.084;2023-03-13T07:18:58;1.25;;;0.50;;
21681;SDS011;11002;48.256;10.084;2023-03-13T07:21:25;0.80;;;0.40;;
21681;SDS011;11002;48.256;10.084;2023-03-13T07:23:52;0.70;;;0.40;;
21681;SDS011;11002;48.256;10.084;2023-03-13T07:26:20;1.23;;;0.68;;
21681;SDS011;11002;48.256;10.084;2023-03-13T07:28:48;2.97;;;0.50;;
21681;SDS011;11002;48.256;10.084;2023-03-13T07:31:16;1.10;;;0.28;;
21681;SDS011;11002;48.256;10.084;2023-03-13T07:33:45;0.90;;;0.38;;
21681;SDS011;11002;48.256;10.084;2023-03-13T07:36:13;1.15;;;0.38;;
21681;SDS011;11002;48.256;10.084;2023-03-13T07:38:41;0.80;;;0.38;;
21681;SDS011;11002;48.256;10.084;2023-03-13T07:41:10;1.85;;;0.40;;
21681;SDS011;11002;48.256;10.084;2023-03-13T07:43:38;1.63;;;0.40;;
21681;SDS011;11002;48.256;10.084;2023-03-13T07:46:08;1.27;;;0.30;;
21681;SDS011;11002;48.256;10.084;2023-03-13T07:48:38;1.55;;;0.50;;
21681;SDS011;11002;48.256;10.084;2023-03-13T07:51:09;2.38;;;0.60;;
21681;SDS011;11002;48.256;10.084;2023-03-13T07:53:38;0.65;;;0.40;;
21681;SDS011;11002;48.256;10.084;2023-03-13T07:56:06;0.65;;;0.60;;
21681;SDS011;11002;48.256;10.084;2023-03-13T07:58:36;0.80;;;0.60;;
21681;SDS011;11002;48.256;10.084;2023-03-13T08:01:09;0.82;;;0.30;;
21681;SDS011;11002;48.256;10.084;2023-03-13T08:03:38;0.50;;;0.28;;
21681;SDS011;11002;48.256;10.084;2023-03-13T08:06:06;2.28;;;0.20;;
21681;SDS011;11002;48.256;10.084;2023-03-13T08:08:35;1.05;;;0.70;;
21681;SDS011;11002;48.256;10.084;2023-03-13T08:11:04;1.25;;;0.32;;
21681;SDS011;11002;48.256;10.084;2023-03-13T08:13:33;0.50;;;0.50;;
21681;SDS011;11002;48.256;10.084;2023-03-13T08:16:06;0.65;;;0.32;;
21681;SDS011;11002;48.256;10.084;2023-03-13T08:18:36;0.97;;;0.40;;
21681;SDS011;11002;48.256;10.084;2023-03-13T08:21:05;1.42;;;0.30;;
21681;SDS011;11002;48.256;10.084;2023-03-13T08:23:34;1.45;;;0.50;;
21681;SDS011;11002;48.256;10.084;2023-03-13T08:26:12;1.58;;;0.60;;
21681;SDS011;11002;48.256;10.084;2023-03-13T08:28:41;1.13;;;0.40;;
21681;SDS011;11002;48.256;10.084;2023-03-13T08:31:11;1.50;;;0.40;;
21681;SDS011;11002;48.256;10.084;2023-03-13T08:33:41;2.25;;;0.50;;
21681;SDS011;11002;48.256;10.084;2023-03-13T08:36:10;1.65;;;0.43;;
21681;SDS011;11002;48.256;10.084;2023-03-13T08:38:39;0.95;;;0.57;;
21681;SDS011;11002;48.256;10.084;2023-03-13T08:41:10;2.75;;;0.47;;
21681;SDS011;11002;48.256;10.084;2023-03-13T08:43:46;0.45;;;0.38;;
21681;SDS011;11002;48.256;10.084;2023-03-13T08:46:26;1.48;;;0.40;;
21681;SDS011;11002;48.256;10.084;2023-03-13T08:50:20;0.73;;;0.63;;
21681;SDS011;11002;48.256;10.084;2023-03-13T08:53:52;3.03;;;0.38;;
21681;SDS011;11002;48.256;10.084;2023-03-13T08:56:20;1.27;;;0.32;;
21681;SDS011;11002;48.256;10.084;2023-03-13T08:58:49;1.40;;;0.40;;
21681;SDS011;11002;48.256;10.084;2023-03-13T09:01:18;0.28;;;0.20;;
21681;SDS011;11002;48.256;10.084;2023-03-13T09:03:50;0.88;;;0.32;;
21681;SDS011;11002;48.256;10.084;2023-03-13T09:06:18;3.40;;;0.70;;
21681;SDS011;11002;48.256;10.084;2023-03-13T09:08:45;1.35;;;0.35;;
21681;SDS011;11002;48.256;10.084;2023-03-13T09:11:14;0.32;;;0.30;;
21681;SDS011;11002;48.256;10.084;2023-03-13T09:13:43;0.80;;;0.40;;
21681;SDS011;11002;48.256;10.084;2023-03-13T09:16:13;0.95;;;0.47;;
21681;SDS011;11002;48.256;10.084;2023-03-13T09:18:42;1.17;;;0.50;;
21681;SDS011;11002;48.256;10.084;2023-03-13T09:21:12;1.70;;;0.30;;
21681;SDS011;11002;48.256;10.084;2023-03-13T09:23:42;0.93;;;0.50;;
21681;SDS011;11002;48.256;10.084;2023-03-13T09:26:10;0.75;;;0.52;;
21681;SDS011;11002;48.256;10.084;2023-03-13T09:28:39;0.73;;;0.40;;
21681;SDS011;11002;48.256;10.084;2023-03-13T09:31:06;0.60;;;0.40;;
21681;SDS011;11002;48.256;10.084;2023-03-13T09:33:35;1.05;;;0.38;;
21681;SDS011;11002;48.256;10.084;2023-03-13T09:36:03;1.13;;;0.45;;
21681;SDS011;11002;48.256;10.084;2023-03-13T09:38:32;2.08;;;0.30;;
21681;SDS011;11002;48.256;10.084;2023-03-13T09:41:01;0.52;;;0.30;;
21681;SDS011;11002;48.256;10.084;2023-03-13T09:43:39;0.60;;;0.38;;
21681;SDS011;11002;48.256;10.084;2023-03-13T09:46:14;1.05;;;0.45;;
21681;SDS011;11002;48.256;10.084;2023-03-13T09:48:48;0.80;;;0.40;;
21681;SDS011;11002;48.256;10.084;2023-03-13T09:51:20;1.65;;;0.75;;
21681;SDS011;11002;48.256;10.084;2023-03-13T09:53:53;2.05;;;0.80;;
21681;SDS011;11002;48.256;10.084;2023-03-13T09:56:26;0.90;;;0.52;;
21681;SDS011;11002;48.256;10.084;2023-03-13T09:59:01;1.63;;;0.60;;
21681;SDS011;11002;48.256;10.084;2023-03-13T10:01:32;2.47;;;0.63;;
21681;SDS011;11002;48.256;10.084;2023-03-13T10:04:06;1.10;;;0.50;;
21681;SDS011;11002;48.256;10.084;2023-03-13T10:06:47;0.95;;;0.40;;
21681;SDS011;11002;48.256;10.084;2023-03-13T10:09:18;2.55;;;0.70;;
21681;SDS011;11002;48.256;10.084;2023-03-13T10:11:51;0.90;;;0.47;;
21681;SDS011;11002;48.256;10.084;2023-03-13T10:14:27;2.17;;;0.50;;
21681;SDS011;11002;48.256;10.084;2023-03-13T10:16:59;2.25;;;0.40;;
21681;SDS011;11002;48.256;10.084;2023-03-13T10:19:34;0.75;;;0.38;;
21681;SDS011;11002;48.256;10.084;2023-03-13T10:22:07;1.00;;;0.40;;
21681;SDS011;11002;48.256;10.084;2023-03-13T10:24:41;1.65;;;0.35;;
21681;SDS011;11002;48.256;10.084;2023-03-13T10:27:16;1.58;;;0.52;;
21681;SDS011;11002;48.256;10.084;2023-03-13T10:29:43;2.65;;;0.45;;
21681;SDS011;11002;48.256;10.084;2023-03-13T10:32:11;1.23;;;0.60;;
21681;SDS011;11002;48.256;10.084;2023-03-13T10:34:44;0.50;;;0.50;;
21681;SDS011;11002;48.256;10.084;2023-03-13T10:37:19;0.50;;;0.50;;
21681;SDS011;11002;48.256;10.084;2023-03-13T10:39:50;1.08;;;0.50;;
21681;SDS011;11002;48.256;10.084;2023-03-13T10:42:20;3.20;;;0.47;;
21681;SDS011;11002;48.256;10.084;2023-03-13T10:44:57;0.80;;;0.45;;
21681;SDS011;11002;48.256;10.084;2023-03-13T10:47:25;0.75;;;0.43;;
21681;SDS011;11002;48.256;10.084;2023-03-13T10:49:54;0.50;;;0.47;;
21681;SDS011;11002;48.256;10.084;2023-03-13T10:52:30;2.17;;;0.65;;
21681;SDS011;11002;48.256;10.084;2023-03-13T10:55:02;1.65;;;0.50;;
21681;SDS011;11002;48.256;10.084;2023-03-13T10:57:32;0.95;;;0.50;;
21681;SDS011;11002;48.256;10.084;2023-03-13T11:00:02;1.38;;;0.47;;
21681;SDS011;11002;48.256;10.084;2023-03-13T11:02:47;1.90;;;0.55;;
21681;SDS011;11002;48.256;10.084;2023-03-13T11:05:32;1.38;;;0.77;;
21681;SDS011;11002;48.256;10.084;2023-03-13T11:08:11;5.20;;;0.55;;
21681;SDS011;11002;48.256;10.084;2023-03-13T11:10:55;4.45;;;0.60;;
21681;SDS011;11002;48.256;10.084;2023-03-13T11:13:34;0.85;;;0.40;;
21681;SDS011;11002;48.256;10.084;2023-03-13T11:16:09;3.10;;;0.73;;
21681;SDS011;11002;48.256;10.084;2023-03-13T11:18:50;0.60;;;0.50;;
21681;SDS011;11002;48.256;10.084;2023-03-13T11:21:32;1.20;;;0.80;;
21681;SDS011;11002;48.256;10.084;2023-03-13T11:24:09;1.23;;;0.55;;
21681;SDS011;11002;48.256;10.084;2023-03-13T11:26:43;1.35;;;0.60;;
21681;SDS011;11002;48.256;10.084;2023-03-13T11:29:18;1.23;;;0.57;;
21681;SDS011;11002;48.256;10.084;2023-03-13T11:31:53;1.15;;;0.70;;
21681;SDS011;11002;48.256;10.084;2023-03-13T11:34:26;0.43;;;0.43;;
21681;SDS011;11002;48.256;10.084;2023-03-13T11:37:02;2.80;;;0.77;;
21681;SDS011;11002;48.256;10.084;2023-03-13T11:39:43;4.03;;;0.60;;
21681;SDS011;11002;48.256;10.084;2023-03-13T11:42:29;5.10;;;0.50;;
21681;SDS011;11002;48.256;10.084;2023-03-13T11:45:11;2.25;;;0.90;;
21681;SDS011;11002;48.256;10.084;2023-03-13T11:47:53;6.78;;;0.70;;
21681;SDS011;11002;48.256;10.084;2023-03-13T11:50:34;1.58;;;0.65;;
21681;SDS011;11002;48.256;10.084;2023-03-13T11:53:09;1.00;;;0.57;;
21681;SDS011;11002;48.256;10.084;2023-03-13T11:55:59;3.40;;;0.63;;
21681;SDS011;11002;48.256;10.084;2023-03-13T11:58:39;1.55;;;0.80;;
21681;SDS011;11002;48.256;10.084;2023-03-13T12:01:16;1.48;;;0.75;;
21681;SDS011;11002;48.256;10.084;2023-03-13T12:03:50;1.05;;;0.50;;
21681;SDS011;11002;48.256;10.084;2023-03-13T12:06:23;2.08;;;0.60;;
21681;SDS011;11002;48.256;10.084;2023-03-13T12:08:57;3.55;;;0.60;;
21681;SDS011;11002;48.256;10.084;2023-03-13T12:11:30;6.15;;;0.70;;
21681;SDS011;11002;48.256;10.084;2023-03-13T12:14:02;1.02;;;0.60;;
21681;SDS011;11002;48.256;10.084;2023-03-13T12:16:37;2.33;;;0.68;;
21681;SDS011;11002;48.256;10.084;2023-03-13T12:19:11;1.35;;;0.47;;
21681;SDS011;11002;48.256;10.084;2023-03-13T12:21:44;2.38;;;0.52;;
21681;SDS011;11002;48.256;10.084;2023-03-13T12:24:27;1.40;;;0.95;;
21681;SDS011;11002;48.256;10.084;2023-03-13T12:26:59;1.98;;;0.70;;
21681;SDS011;11002;48.256;10.084;2023-03-13T12:29:34;1.58;;;0.68;;
21681;SDS011;11002;48.256;10.084;2023-03-13T12:32:08;1.90;;;0.80;;
21681;SDS011;11002;48.256;10.084;2023-03-13T12:34:43;2.53;;;1.17;;
21681;SDS011;11002;48.256;10.084;2023-03-13T12:37:20;1.67;;;0.82;;
21681;SDS011;11002;48.256;10.084;2023-03-13T12:39:54;3.50;;;0.82;;
21681;SDS011;11002;48.256;10.084;2023-03-13T12:42:32;2.73;;;0.70;;
21681;SDS011;11002;48.256;10.084;2023-03-13T12:45:10;4.47;;;1.05;;
21681;SDS011;11002;48.256;10.084;2023-03-13T12:50:29;1.00;;;0.50;;
21681;SDS011;11002;48.256;10.084;2023-03-13T12:53:10;1.15;;;0.60;;
21681;SDS011;11002;48.256;10.084;2023-03-13T12:58:25;3.90;;;0.68;;
21681;SDS011;11002;48.256;10.084;2023-03-13T13:01:00;2.53;;;0.63;;
21681;SDS011;11002;48.256;10.084;2023-03-13T13:03:30;3.60;;;0.70;;
21681;SDS011;11002;48.256;10.084;2023-03-13T13:06:02;1.25;;;0.60;;
21681;SDS011;11002;48.256;10.084;2023-03-13T13:08:35;1.08;;;0.52;;
21681;SDS011;11002;48.256;10.084;2023-03-13T13:17:26;1.58;;;0.40;;
21681;SDS011;11002;48.256;10.084;2023-03-13T13:25:46;2.50;;;0.40;;
21681;SDS011;11002;48.256;10.084;2023-03-13T13:28:33;3.42;;;0.60;;
21681;SDS011;11002;48.256;10.084;2023-03-13T13:31:01;0.90;;;0.32;;
21681;SDS011;11002;48.256;10.084;2023-03-13T13:34:22;0.95;;;0.50;;
21681;SDS011;11002;48.256;10.084;2023-03-13T13:37:26;0.73;;;0.65;;
21681;SDS011;11002;48.256;10.084;2023-03-13T13:40:09;4.80;;;0.30;;
21681;SDS011;11002;48.256;10.084;2023-03-13T13:42:51;0.88;;;0.40;;
21681;SDS011;11002;48.256;10.084;2023-03-13T13:45:30;3.53;;;0.40;;
21681;SDS011;11002;48.256;10.084;2023-03-13T13:53:53;1.00;;;0.30;;
21681;SDS011;11002;48.256;10.084;2023-03-13T13:56:40;0.88;;;0.40;;
21681;SDS011;11002;48.256;10.084;2023-03-13T13:59:20;0.38;;;0.30;;
21681;SDS011;11002;48.256;10.084;2023-03-13T14:02:19;0.70;;;0.40;;
21681;SDS011;11002;48.256;10.084;2023-03-13T14:04:53;1.88;;;0.60;;
21681;SDS011;11002;48.256;10.084;2023-03-13T14:07:28;2.38;;;0.40;;
21681;SDS011;11002;48.256;10.084;2023-03-13T14:10:06;1.02;;;0.60;;
21681;SDS011;11002;48.256;10.084;2023-03-13T14:12:57;1.63;;;0.45;;
21681;SDS011;11002;48.256;10.084;2023-03-13T14:15:27;3.20;;;0.30;;
21681;SDS011;11002;48.256;10.084;2023-03-13T14:17:56;0.73;;;0.32;;
21681;SDS011;11002;48.256;10.084;2023-03-13T14:20:30;2.30;;;0.30;;
21681;SDS011;11002;48.256;10.084;2023-03-13T14:23:06;1.33;;;0.30;;
21681;SDS011;11002;48.256;10.084;2023-03-13T14:25:43;0.60;;;0.57;;
21681;SDS011;11002;48.256;10.084;2023-03-13T14:28:20;0.63;;;0.40;;
21681;SDS011;11002;48.256;10.084;2023-03-13T14:30:49;1.05;;;0.30;;
21681;SDS011;11002;48.256;10.084;2023-03-13T14:33:17;2.60;;;0.45;;
21681;SDS011;11002;48.256;10.084;2023-03-13T14:35:45;1.17;;;0.30;;
21681;SDS011;11002;48.256;10.084;2023-03-13T14:38:21;1.10;;;0.30;;
21681;SDS011;11002;48.256;10.084;2023-03-13T14:40:50;2.83;;;0.30;;
21681;SDS011;11002;48.256;10.084;2023-03-13T14:43:20;2.05;;;0.40;;
21681;SDS011;11002;48.256;10.084;2023-03-13T14:45:51;0.30;;;0.30;;
21681;SDS011;11002;48.256;10.084;2023-03-13T14:48:20;1.58;;;0.28;;
21681;SDS011;11002;48.256;10.084;2023-03-13T14:50:52;1.75;;;0.28;;
21681;SDS011;11002;48.256;10.084;2023-03-13T14:53:27;2.13;;;0.30;;
21681;SDS011;11002;48.256;10.084;2023-03-13T14:56:11;3.75;;;0.50;;
21681;SDS011;11002;48.256;10.084;2023-03-13T14:58:43;1.17;;;0.43;;
21681;SDS011;11002;48.256;10.084;2023-03-13T15:01:12;1.60;;;0.30;;
21681;SDS011;11002;48.256;10.084;2023-03-13T15:03:49;1.05;;;0.43;;
21681;SDS011;11002;48.256;10.084;2023-03-13T15:06:21;0.73;;;0.60;;
21681;SDS011;11002;48.256;10.084;2023-03-13T15:11:51;2.17;;;0.50;;
21681;SDS011;11002;48.256;10.084;2023-03-13T15:14:30;0.45;;;0.30;;
21681;SDS011;11002;48.256;10.084;2023-03-13T15:17:02;2.17;;;0.40;;
21681;SDS011;11002;48.256;10.084;2023-03-13T15:19:36;2.10;;;0.30;;
21681;SDS011;11002;48.256;10.084;2023-03-13T15:22:04;2.90;;;0.20;;
21681;SDS011;11002;48.256;10.084;2023-03-13T15:24:32;1.15;;;0.25;;
21681;SDS011;11002;48.256;10.084;2023-03-13T15:27:00;1.35;;;0.20;;
21681;SDS011;11002;48.256;10.084;2023-03-13T15:29:27;0.22;;;0.20;;
21681;SDS011;11002;48.256;10.084;2023-03-13T15:31:54;0.40;;;0.20;;
21681;SDS011;11002;48.256;10.084;2023-03-13T15:34:21;0.65;;;0.40;;
21681;SDS011;11002;48.256;10.084;2023-03-13T15:36:49;0.57;;;0.20;;
21681;SDS011;11002;48.256;10.084;2023-03-13T15:39:17;3.03;;;0.30;;
21681;SDS011;11002;48.256;10.084;2023-03-13T15:41:46;1.30;;;0.17;;
21681;SDS011;11002;48.256;10.084;2023-03-13T15:44:14;1.30;;;0.35;;
21681;SDS011;11002;48.256;10.084;2023-03-13T15:46:41;0.32;;;0.30;;